createdAt,value
2019-03-16T00:00:10.285Z,0.00
2019-03-16T00:01:12.809Z,0.00
2019-03-16T00:02:10.585Z,0.00
2019-03-16T00:03:10.722Z,0.00
2019-03-16T00:04:10.853Z,0.00
2019-03-16T00:05:10.982Z,0.00
2019-03-16T00:06:11.107Z,0.00
2019-03-16T00:07:11.231Z,0.00
2019-03-16T00:08:11.344Z,0.00
2019-03-16T00:09:11.464Z,0.00
2019-03-16T00:10:11.591Z,0.00
2019-03-16T00:11:11.722Z,0.00
2019-03-16T00:12:11.870Z,0.00
2019-03-16T00:13:11.994Z,0.00
2019-03-16T00:14:12.118Z,0.00
2019-03-16T00:15:12.251Z,0.00
2019-03-16T00:16:12.395Z,0.00
2019-03-16T00:17:22.945Z,0.00
2019-03-16T00:18:12.654Z,0.00
2019-03-16T00:19:12.771Z,0.00
2019-03-16T00:20:12.907Z,0.00
2019-03-16T00:21:13.031Z,0.00
2019-03-16T00:22:13.164Z,0.00
2019-03-16T00:23:13.295Z,0.00
2019-03-16T00:24:13.449Z,0.00
2019-03-16T00:25:13.568Z,0.00
2019-03-16T00:26:13.699Z,0.00
2019-03-16T00:27:13.819Z,0.00
2019-03-16T00:28:13.949Z,0.00
2019-03-16T00:29:14.074Z,0.00
2019-03-16T00:30:14.207Z,0.00
2019-03-16T00:31:14.329Z,0.00
2019-03-16T00:32:14.456Z,0.00
2019-03-16T00:33:14.582Z,0.00
2019-03-16T00:34:14.708Z,0.00
2019-03-16T00:35:14.835Z,0.00
2019-03-16T00:36:14.971Z,0.00
2019-03-16T00:37:15.101Z,0.00
2019-03-16T00:38:15.203Z,0.00
2019-03-16T00:39:15.348Z,0.00
2019-03-16T00:40:15.479Z,0.00
2019-03-16T00:41:15.595Z,0.00
2019-03-16T00:42:15.732Z,0.00
2019-03-16T00:43:15.867Z,0.00
2019-03-16T00:44:15.975Z,0.00
2019-03-16T00:45:16.098Z,0.00
2019-03-16T00:46:16.235Z,0.00
2019-03-16T00:47:16.359Z,0.00
2019-03-16T00:48:16.483Z,0.00
2019-03-16T00:49:16.604Z,0.00
2019-03-16T00:50:16.732Z,0.00
2019-03-16T00:51:16.850Z,0.00
2019-03-16T00:52:16.985Z,0.00
2019-03-16T00:53:17.110Z,0.00
2019-03-16T00:54:17.246Z,0.00
2019-03-16T00:55:17.368Z,0.00
2019-03-16T00:56:17.495Z,0.00
2019-03-16T00:57:17.625Z,0.00
2019-03-16T00:58:17.744Z,0.00
2019-03-16T00:59:17.868Z,0.00
2019-03-16T01:00:17.998Z,0.00
2019-03-16T01:01:18.112Z,0.00
2019-03-16T01:02:27.149Z,0.00
2019-03-16T01:03:18.361Z,0.00
2019-03-16T01:04:18.504Z,0.00
2019-03-16T01:05:18.628Z,0.00
2019-03-16T01:06:18.746Z,0.00
2019-03-16T01:07:18.874Z,0.00
2019-03-16T01:08:18.998Z,0.00
2019-03-16T01:09:19.128Z,0.00
2019-03-16T01:10:19.257Z,0.00
2019-03-16T01:11:19.385Z,0.00
2019-03-16T01:12:19.507Z,0.00
2019-03-16T01:13:19.632Z,0.00
2019-03-16T01:14:19.762Z,0.00
2019-03-16T01:15:19.894Z,0.00
2019-03-16T01:16:20.010Z,0.00
2019-03-16T01:17:20.152Z,0.00
2019-03-16T01:18:20.278Z,0.00
2019-03-16T01:19:20.394Z,0.00
2019-03-16T01:20:20.517Z,0.00
2019-03-16T01:21:20.645Z,0.00
2019-03-16T01:22:20.777Z,0.00
2019-03-16T01:23:20.898Z,0.00
2019-03-16T01:24:21.023Z,0.00
2019-03-16T01:25:21.142Z,0.00
2019-03-16T01:26:21.277Z,0.00
2019-03-16T01:27:21.411Z,0.00
2019-03-16T01:28:21.529Z,0.00
2019-03-16T01:29:21.665Z,0.00
2019-03-16T01:30:21.781Z,0.00
2019-03-16T01:31:21.907Z,0.00
2019-03-16T01:32:22.033Z,0.00
2019-03-16T01:33:22.183Z,0.00
2019-03-16T01:34:22.281Z,0.00
2019-03-16T01:35:22.409Z,0.00
2019-03-16T01:36:22.536Z,0.00
2019-03-16T01:37:22.670Z,0.00
2019-03-16T01:38:22.793Z,0.00
2019-03-16T01:39:22.915Z,0.00
2019-03-16T01:40:23.036Z,0.00
2019-03-16T01:41:23.163Z,0.00
2019-03-16T01:42:23.299Z,0.00
2019-03-16T01:43:23.420Z,0.00
2019-03-16T01:44:23.542Z,0.00
2019-03-16T01:45:23.663Z,0.00
2019-03-16T01:46:23.795Z,0.00
2019-03-16T01:47:23.928Z,0.00
2019-03-16T01:48:24.046Z,0.00
2019-03-16T01:49:24.177Z,0.00
2019-03-16T01:50:24.311Z,0.00
2019-03-16T01:51:24.436Z,0.00
2019-03-16T01:52:24.571Z,0.00
2019-03-16T01:53:24.689Z,0.00
2019-03-16T01:54:24.833Z,0.00
2019-03-16T01:55:24.963Z,0.00
2019-03-16T01:56:25.075Z,0.00
2019-03-16T01:57:25.208Z,0.00
2019-03-16T01:58:25.332Z,0.00
2019-03-16T01:59:25.457Z,0.00
2019-03-16T02:00:25.581Z,0.00
2019-03-16T02:01:25.706Z,0.00
2019-03-16T02:02:25.841Z,0.00
2019-03-16T02:03:25.971Z,0.00
2019-03-16T02:04:26.095Z,0.00
2019-03-16T02:05:26.227Z,0.00
2019-03-16T02:06:26.355Z,0.00
2019-03-16T02:07:26.486Z,0.00
2019-03-16T02:08:26.607Z,0.00
2019-03-16T02:09:26.735Z,0.00
2019-03-16T02:10:26.851Z,0.00
2019-03-16T02:11:26.974Z,0.00
2019-03-16T02:12:27.102Z,0.00
2019-03-16T02:13:27.230Z,0.00
2019-03-16T02:14:27.357Z,0.00
2019-03-16T02:15:27.481Z,0.00
2019-03-16T02:16:27.610Z,0.00
2019-03-16T02:17:27.741Z,0.00
2019-03-16T02:18:27.862Z,0.00
2019-03-16T02:19:27.986Z,0.00
2019-03-16T02:20:28.123Z,0.00
2019-03-16T02:21:28.284Z,0.00
2019-03-16T02:22:28.382Z,0.00
2019-03-16T02:23:28.504Z,0.00
2019-03-16T02:24:28.630Z,0.00
2019-03-16T02:25:28.757Z,0.00
2019-03-16T02:26:28.889Z,0.00
2019-03-16T02:27:29.008Z,0.00
2019-03-16T02:28:29.128Z,0.00
2019-03-16T02:29:29.254Z,0.00
2019-03-16T02:30:29.386Z,0.00
2019-03-16T02:31:29.503Z,0.00
2019-03-16T02:32:29.628Z,0.00
2019-03-16T02:33:29.754Z,0.00
2019-03-16T02:34:29.876Z,0.00
2019-03-16T02:35:30.006Z,0.00
2019-03-16T02:36:30.124Z,0.00
2019-03-16T02:37:30.259Z,0.00
2019-03-16T02:38:30.381Z,0.00
2019-03-16T02:39:30.511Z,0.00
2019-03-16T02:40:30.633Z,0.00
2019-03-16T02:41:30.753Z,0.00
2019-03-16T02:42:30.880Z,0.00
2019-03-16T02:43:31.010Z,0.00
2019-03-16T02:44:31.133Z,0.00
2019-03-16T02:45:31.256Z,0.00
2019-03-16T02:46:31.380Z,0.00
2019-03-16T02:47:31.510Z,0.00
2019-03-16T02:48:31.649Z,0.00
2019-03-16T02:49:31.769Z,0.00
2019-03-16T02:50:31.902Z,0.00
2019-03-16T02:51:32.025Z,0.00
2019-03-16T02:52:32.145Z,0.00
2019-03-16T02:53:32.275Z,0.00
2019-03-16T02:54:32.396Z,0.00
2019-03-16T02:55:32.529Z,0.00
2019-03-16T02:56:32.650Z,0.00
2019-03-16T02:57:32.780Z,0.00
2019-03-16T02:58:32.906Z,0.00
2019-03-16T02:59:33.033Z,0.00
2019-03-16T03:00:33.153Z,0.00
2019-03-16T03:01:33.290Z,0.00
2019-03-16T03:02:33.427Z,0.00
2019-03-16T03:03:33.557Z,0.00
2019-03-16T03:04:33.686Z,0.00
2019-03-16T03:05:33.811Z,0.00
2019-03-16T03:06:33.925Z,0.00
2019-03-16T03:07:34.053Z,0.00
2019-03-16T03:08:34.180Z,0.00
2019-03-16T03:09:34.305Z,0.00
2019-03-16T03:10:34.433Z,0.00
2019-03-16T03:11:34.565Z,0.00
2019-03-16T03:12:34.694Z,0.00
2019-03-16T03:13:34.825Z,0.00
2019-03-16T03:14:34.940Z,0.00
2019-03-16T03:15:35.069Z,0.00
2019-03-16T03:16:35.199Z,0.00
2019-03-16T03:17:35.338Z,0.00
2019-03-16T03:18:35.459Z,0.00
2019-03-16T03:19:35.588Z,0.00
2019-03-16T03:20:35.717Z,0.00
2019-03-16T03:21:35.841Z,0.00
2019-03-16T03:22:35.965Z,0.00
2019-03-16T03:23:36.091Z,0.00
2019-03-16T03:24:36.223Z,0.00
2019-03-16T03:25:36.347Z,0.00
2019-03-16T03:26:36.472Z,0.00
2019-03-16T03:27:36.600Z,0.00
2019-03-16T03:28:36.722Z,0.00
2019-03-16T03:29:36.859Z,0.00
2019-03-16T03:30:36.988Z,0.00
2019-03-16T03:31:37.119Z,0.00
2019-03-16T03:32:37.341Z,0.00
2019-03-16T03:33:57.132Z,0.00
2019-03-16T03:34:37.520Z,0.00
2019-03-16T03:35:37.611Z,0.00
2019-03-16T03:36:37.738Z,0.00
2019-03-16T03:37:37.960Z,0.00
2019-03-16T03:38:37.986Z,0.00
2019-03-16T03:39:38.115Z,0.00
2019-03-16T03:40:38.239Z,0.00
2019-03-16T03:41:38.368Z,0.00
2019-03-16T03:42:38.509Z,0.00
2019-03-16T03:43:38.621Z,0.00
2019-03-16T03:44:38.750Z,0.00
2019-03-16T03:45:38.873Z,0.00
2019-03-16T03:46:38.999Z,0.00
2019-03-16T03:47:39.123Z,0.00
2019-03-16T03:48:39.255Z,0.00
2019-03-16T03:49:39.375Z,0.00
2019-03-16T03:50:39.495Z,0.00
2019-03-16T03:51:39.623Z,0.00
2019-03-16T03:52:39.756Z,0.00
2019-03-16T03:53:41.363Z,0.00
2019-03-16T03:54:40.005Z,0.00
2019-03-16T03:55:40.130Z,0.00
2019-03-16T03:56:40.290Z,0.00
2019-03-16T03:57:40.386Z,0.00
2019-03-16T03:58:40.512Z,0.00
2019-03-16T03:59:40.635Z,0.00
2019-03-16T04:00:40.759Z,0.00
2019-03-16T04:01:40.894Z,0.00
2019-03-16T04:02:41.036Z,0.00
2019-03-16T04:03:41.142Z,0.00
2019-03-16T04:04:41.265Z,0.00
2019-03-16T04:05:41.404Z,0.00
2019-03-16T04:06:41.517Z,0.00
2019-03-16T04:07:41.657Z,0.00
2019-03-16T04:08:41.782Z,0.00
2019-03-16T04:09:41.912Z,0.00
2019-03-16T04:10:42.041Z,0.00
2019-03-16T04:11:42.175Z,0.00
2019-03-16T04:12:42.312Z,0.00
2019-03-16T04:13:42.494Z,0.00
2019-03-16T04:14:42.550Z,0.00
2019-03-16T04:15:42.679Z,0.00
2019-03-16T04:16:42.806Z,0.00
2019-03-16T04:17:42.934Z,0.00
2019-03-16T04:18:43.061Z,0.00
2019-03-16T04:19:43.186Z,0.00
2019-03-16T04:20:43.308Z,0.00
2019-03-16T04:21:43.441Z,0.00
2019-03-16T04:22:43.563Z,0.00
2019-03-16T04:23:43.699Z,0.00
2019-03-16T04:24:45.596Z,0.00
2019-03-16T04:25:43.942Z,0.00
2019-03-16T04:26:44.072Z,0.00
2019-03-16T04:27:44.228Z,0.00
2019-03-16T04:28:44.327Z,0.00
2019-03-16T04:29:44.453Z,0.00
2019-03-16T04:30:44.579Z,0.00
2019-03-16T04:31:44.708Z,0.00
2019-03-16T04:32:44.834Z,0.00
2019-03-16T04:33:44.958Z,0.00
2019-03-16T04:34:45.374Z,0.00
2019-03-16T04:35:45.208Z,0.00
2019-03-16T04:36:45.339Z,0.00
2019-03-16T04:37:45.479Z,0.00
2019-03-16T04:38:45.606Z,0.00
2019-03-16T04:39:45.728Z,0.00
2019-03-16T04:40:45.857Z,0.00
2019-03-16T04:41:45.976Z,0.00
2019-03-16T04:42:46.109Z,0.00
2019-03-16T04:43:46.235Z,0.00
2019-03-16T04:44:46.362Z,0.00
2019-03-16T04:45:46.486Z,0.00
2019-03-16T04:46:46.618Z,0.00
2019-03-16T04:47:46.746Z,0.00
2019-03-16T04:48:46.866Z,0.00
2019-03-16T04:49:46.997Z,0.00
2019-03-16T04:50:47.126Z,0.00
2019-03-16T04:51:47.249Z,0.00
2019-03-16T04:52:47.380Z,0.00
2019-03-16T04:53:47.502Z,0.00
2019-03-16T04:54:47.654Z,0.00
2019-03-16T04:55:47.763Z,0.00
2019-03-16T04:56:47.890Z,0.00
2019-03-16T04:57:48.035Z,0.00
2019-03-16T04:58:48.173Z,0.00
2019-03-16T04:59:48.297Z,0.00
2019-03-16T05:00:48.420Z,0.00
2019-03-16T05:01:48.546Z,0.00
2019-03-16T05:02:48.676Z,0.00
2019-03-16T05:03:48.803Z,0.00
2019-03-16T05:04:48.938Z,0.00
2019-03-16T05:05:49.052Z,0.00
2019-03-16T05:06:49.183Z,0.00
2019-03-16T05:07:49.309Z,0.00
2019-03-16T05:08:49.433Z,0.00
2019-03-16T05:09:49.562Z,0.00
2019-03-16T05:10:49.690Z,0.00
2019-03-16T05:11:49.814Z,0.00
2019-03-16T05:12:49.936Z,0.00
2019-03-16T05:13:50.071Z,0.00
2019-03-16T05:14:50.210Z,4.00
2019-03-16T05:15:51.030Z,4.00
2019-03-16T05:16:50.452Z,4.00
2019-03-16T05:17:50.573Z,0.00
2019-03-16T05:18:50.701Z,4.00
2019-03-16T05:19:50.826Z,4.00
2019-03-16T05:20:50.953Z,8.00
2019-03-16T05:21:51.077Z,4.00
2019-03-16T05:22:51.200Z,4.00
2019-03-16T05:23:51.367Z,8.00
2019-03-16T05:24:51.453Z,4.00
2019-03-16T05:25:51.576Z,8.00
2019-03-16T05:26:51.708Z,12.00
2019-03-16T05:27:51.838Z,12.00
2019-03-16T05:28:51.963Z,16.00
2019-03-16T05:29:52.090Z,12.00
2019-03-16T05:30:52.211Z,12.00
2019-03-16T05:31:52.342Z,16.00
2019-03-16T05:32:52.553Z,16.00
2019-03-16T05:33:52.602Z,24.00
2019-03-16T05:34:56.661Z,24.00
2019-03-16T05:35:52.844Z,24.00
2019-03-16T05:36:55.921Z,28.00
2019-03-16T05:37:53.097Z,28.00
2019-03-16T05:38:53.221Z,32.00
2019-03-16T05:39:53.345Z,36.00
2019-03-16T05:40:53.468Z,40.00
2019-03-16T05:41:53.599Z,44.00
2019-03-16T05:42:53.716Z,44.00
2019-03-16T05:43:53.847Z,48.00
2019-03-16T05:44:53.964Z,52.00
2019-03-16T05:45:54.095Z,60.00
2019-03-16T05:46:54.221Z,64.00
2019-03-16T05:47:54.342Z,68.00
2019-03-16T05:48:54.472Z,76.00
2019-03-16T05:49:54.593Z,84.00
2019-03-16T05:50:57.386Z,92.00
2019-03-16T05:51:54.849Z,100.00
2019-03-16T05:52:54.975Z,112.00
2019-03-16T05:53:55.098Z,120.00
2019-03-16T05:54:55.225Z,136.00
2019-03-16T05:55:55.351Z,148.00
2019-03-16T05:56:55.479Z,156.00
2019-03-16T05:57:55.606Z,168.00
2019-03-16T05:58:55.728Z,180.00
2019-03-16T05:59:55.856Z,192.00
2019-03-16T06:00:55.983Z,208.00
2019-03-16T06:01:56.121Z,228.00
2019-03-16T06:02:56.245Z,240.00
2019-03-16T06:03:56.370Z,248.00
2019-03-16T06:05:09.529Z,260.00
2019-03-16T06:05:56.625Z,276.00
2019-03-16T06:06:56.750Z,284.00
2019-03-16T06:07:56.873Z,300.00
2019-03-16T06:08:57.003Z,316.00
2019-03-16T06:09:57.126Z,328.00
2019-03-16T06:10:57.251Z,328.00
2019-03-16T06:11:57.380Z,324.00
2019-03-16T06:12:57.511Z,324.00
2019-03-16T06:13:57.634Z,344.00
2019-03-16T06:14:57.760Z,360.00
2019-03-16T06:15:57.897Z,360.00
2019-03-16T06:16:58.032Z,352.00
2019-03-16T06:17:58.178Z,336.00
2019-03-16T06:18:58.282Z,332.00
2019-03-16T06:19:58.415Z,340.00
2019-03-16T06:20:58.558Z,364.00
2019-03-16T06:21:58.684Z,412.00
2019-03-16T06:22:58.845Z,468.00
2019-03-16T06:23:58.926Z,524.00
2019-03-16T06:24:59.067Z,572.00
2019-03-16T06:25:59.204Z,616.00
2019-03-16T06:26:59.319Z,660.00
2019-03-16T06:27:59.444Z,704.00
2019-03-16T06:28:59.581Z,708.00
2019-03-16T06:29:59.712Z,672.00
2019-03-16T06:30:59.844Z,636.00
2019-03-16T06:32:00.015Z,624.00
2019-03-16T06:33:00.129Z,608.00
2019-03-16T06:34:00.251Z,600.00
2019-03-16T06:35:00.381Z,592.00
2019-03-16T06:36:00.509Z,596.00
2019-03-16T06:37:00.630Z,608.00
2019-03-16T06:38:00.766Z,652.00
2019-03-16T06:39:00.977Z,692.00
2019-03-16T06:40:01.018Z,720.00
2019-03-16T06:41:01.140Z,768.00
2019-03-16T06:42:01.272Z,776.00
2019-03-16T06:43:01.394Z,704.00
2019-03-16T06:44:01.526Z,676.00
2019-03-16T06:45:01.653Z,676.00
2019-03-16T06:46:01.784Z,660.00
2019-03-16T06:47:01.902Z,640.00
2019-03-16T06:48:02.034Z,648.00
2019-03-16T06:49:02.167Z,648.00
2019-03-16T06:50:02.288Z,640.00
2019-03-16T06:51:02.409Z,612.00
2019-03-16T06:52:02.536Z,548.00
2019-03-16T06:53:02.659Z,524.00
2019-03-16T06:54:02.806Z,548.00
2019-03-16T06:55:02.907Z,616.00
2019-03-16T06:56:03.043Z,692.00
2019-03-16T06:57:03.169Z,768.00
2019-03-16T06:58:03.317Z,832.00
2019-03-16T06:59:03.504Z,876.00
2019-03-16T07:00:03.496Z,956.00
2019-03-16T07:01:03.631Z,1044.00
2019-03-16T07:02:03.761Z,1092.00
2019-03-16T07:03:03.879Z,1112.00
2019-03-16T07:04:04.003Z,1104.00
2019-03-16T07:05:04.127Z,1092.00
2019-03-16T07:06:04.255Z,1072.00
2019-03-16T07:07:04.379Z,1056.00
2019-03-16T07:08:04.504Z,1048.00
2019-03-16T07:09:04.634Z,1068.00
2019-03-16T07:10:04.758Z,1100.00
2019-03-16T07:11:04.878Z,1148.00
2019-03-16T07:12:05.016Z,1224.00
2019-03-16T07:13:05.135Z,1288.00
2019-03-16T07:14:05.260Z,1320.00
2019-03-16T07:15:05.395Z,1268.00
2019-03-16T07:16:05.517Z,1272.00
2019-03-16T07:17:05.647Z,1296.00
2019-03-16T07:18:05.768Z,1272.00
2019-03-16T07:19:05.907Z,1224.00
2019-03-16T07:20:06.026Z,1296.00
2019-03-16T07:21:06.151Z,1376.00
2019-03-16T07:22:06.274Z,1320.00
2019-03-16T07:23:06.417Z,1320.00
2019-03-16T07:24:06.545Z,1328.00
2019-03-16T07:25:06.663Z,1340.00
2019-03-16T07:26:14.644Z,1344.00
2019-03-16T07:27:06.950Z,1284.00
2019-03-16T07:28:07.072Z,1340.00
2019-03-16T07:29:07.202Z,1364.00
2019-03-16T07:30:07.324Z,1372.00
2019-03-16T07:31:07.477Z,1392.00
2019-03-16T07:32:07.615Z,1488.00
2019-03-16T07:33:07.734Z,1568.00
2019-03-16T07:34:07.870Z,1540.00
2019-03-16T07:35:07.987Z,1512.00
2019-03-16T07:36:08.112Z,1520.00
2019-03-16T07:37:08.247Z,1552.00
2019-03-16T07:38:08.367Z,1772.00
2019-03-16T07:39:08.493Z,1848.00
2019-03-16T07:40:08.622Z,1856.00
2019-03-16T07:41:08.750Z,2036.00
2019-03-16T07:42:08.874Z,2136.00
2019-03-16T07:43:09.007Z,2288.00
2019-03-16T07:44:09.132Z,2504.00
2019-03-16T07:45:09.323Z,2520.00
2019-03-16T07:46:09.387Z,2588.00
2019-03-16T07:47:09.523Z,2536.00
2019-03-16T07:48:09.642Z,2468.00
2019-03-16T07:49:09.775Z,2476.00
2019-03-16T07:50:09.898Z,2324.00
2019-03-16T07:51:10.029Z,2600.00
2019-03-16T07:52:10.178Z,3156.00
2019-03-16T07:53:10.292Z,3240.00
2019-03-16T07:54:10.418Z,3108.00
2019-03-16T07:55:10.552Z,2824.00
2019-03-16T07:56:10.668Z,2512.00
2019-03-16T07:57:10.792Z,2252.00
2019-03-16T07:58:10.918Z,1984.00
2019-03-16T07:59:11.059Z,2176.00
2019-03-16T08:00:11.191Z,2032.00
2019-03-16T08:01:11.315Z,1748.00
2019-03-16T08:02:11.438Z,1768.00
2019-03-16T08:03:11.559Z,1852.00
2019-03-16T08:04:11.697Z,1856.00
2019-03-16T08:05:18.694Z,2240.00
2019-03-16T08:06:11.941Z,2604.00
2019-03-16T08:07:12.066Z,2452.00
2019-03-16T08:08:12.206Z,1996.00
2019-03-16T08:09:12.352Z,2148.00
2019-03-16T08:10:12.463Z,2712.00
2019-03-16T08:11:12.597Z,1884.00
2019-03-16T08:12:12.716Z,1196.00
2019-03-16T08:13:12.848Z,1068.00
2019-03-16T08:14:12.971Z,1248.00
2019-03-16T08:15:13.117Z,1660.00
2019-03-16T08:16:13.260Z,2196.00
2019-03-16T08:17:13.352Z,2492.00
2019-03-16T08:18:13.485Z,2612.00
2019-03-16T08:19:13.626Z,2288.00
2019-03-16T08:20:13.743Z,1848.00
2019-03-16T08:21:13.868Z,1604.00
2019-03-16T08:22:13.996Z,1624.00
2019-03-16T08:23:14.151Z,1916.00
2019-03-16T08:24:14.273Z,2704.00
2019-03-16T08:25:14.404Z,3156.00
2019-03-16T08:26:14.526Z,2840.00
2019-03-16T08:27:14.654Z,2760.00
2019-03-16T08:28:14.780Z,2644.00
2019-03-16T08:29:14.907Z,2616.00
2019-03-16T08:30:15.026Z,2808.00
2019-03-16T08:31:15.161Z,2516.00
2019-03-16T08:32:15.292Z,2164.00
2019-03-16T08:33:15.418Z,1740.00
2019-03-16T08:34:15.538Z,1680.00
2019-03-16T08:35:15.664Z,1820.00
2019-03-16T08:36:15.793Z,2308.00
2019-03-16T08:37:15.922Z,2320.00
2019-03-16T08:38:16.067Z,1784.00
2019-03-16T08:39:16.184Z,1640.00
2019-03-16T08:40:16.310Z,1660.00
2019-03-16T08:41:16.454Z,1608.00
2019-03-16T08:42:16.580Z,1624.00
2019-03-16T08:43:16.710Z,1748.00
2019-03-16T08:44:16.861Z,1632.00
2019-03-16T08:45:16.968Z,1676.00
2019-03-16T08:46:17.086Z,1992.00
2019-03-16T08:47:17.200Z,2424.00
2019-03-16T08:48:22.615Z,2676.00
2019-03-16T08:49:17.457Z,2552.00
2019-03-16T08:50:17.572Z,2480.00
2019-03-16T08:51:17.731Z,2324.00
2019-03-16T08:52:17.842Z,1776.00
2019-03-16T08:53:17.965Z,1528.00
2019-03-16T08:54:18.111Z,1708.00
2019-03-16T08:55:18.223Z,1716.00
2019-03-16T08:56:18.355Z,1840.00
2019-03-16T08:57:18.475Z,1912.00
2019-03-16T08:58:18.595Z,2204.00
2019-03-16T08:59:18.725Z,2208.00
2019-03-16T09:00:18.851Z,1900.00
2019-03-16T09:01:18.982Z,1712.00
2019-03-16T09:02:19.112Z,1724.00
2019-03-16T09:03:19.233Z,1880.00
2019-03-16T09:04:19.362Z,1948.00
2019-03-16T09:05:19.487Z,1808.00
2019-03-16T09:06:19.614Z,1932.00
2019-03-16T09:07:19.760Z,1920.00
2019-03-16T09:08:19.890Z,1784.00
2019-03-16T09:09:20.019Z,1464.00
2019-03-16T09:10:20.132Z,1548.00
2019-03-16T09:11:20.268Z,1716.00
2019-03-16T09:12:20.396Z,1856.00
2019-03-16T09:13:20.518Z,2240.00
2019-03-16T09:14:20.652Z,2256.00
2019-03-16T09:15:20.783Z,2228.00
2019-03-16T09:16:20.913Z,2256.00
2019-03-16T09:17:21.048Z,2544.00
2019-03-16T09:18:21.165Z,2712.00
2019-03-16T09:19:21.307Z,2764.00
2019-03-16T09:20:21.438Z,2444.00
2019-03-16T09:21:21.579Z,2668.00
2019-03-16T09:22:21.702Z,2380.00
2019-03-16T09:23:21.847Z,1964.00
2019-03-16T09:24:21.966Z,2032.00
2019-03-16T09:25:22.124Z,1992.00
2019-03-16T09:26:22.254Z,1892.00
2019-03-16T09:27:31.231Z,1904.00
2019-03-16T09:28:22.515Z,2072.00
2019-03-16T09:29:22.662Z,2116.00
2019-03-16T09:30:22.782Z,2004.00
2019-03-16T09:31:22.902Z,2136.00
2019-03-16T09:32:23.044Z,2368.00
2019-03-16T09:33:23.260Z,2072.00
2019-03-16T09:34:23.295Z,1912.00
2019-03-16T09:35:23.434Z,2460.00
2019-03-16T09:36:23.607Z,2784.00
2019-03-16T09:37:23.697Z,3080.00
2019-03-16T09:38:23.827Z,2708.00
2019-03-16T09:39:23.971Z,2364.00
2019-03-16T09:40:24.094Z,2444.00
2019-03-16T09:41:24.224Z,2432.00
2019-03-16T09:42:24.348Z,2360.00
2019-03-16T09:43:24.495Z,2204.00
2019-03-16T09:44:24.662Z,2336.00
2019-03-16T09:45:24.762Z,2644.00
2019-03-16T09:46:24.880Z,2732.00
2019-03-16T09:47:25.054Z,2768.00
2019-03-16T09:48:25.176Z,2452.00
2019-03-16T09:49:25.308Z,2488.00
2019-03-16T09:50:25.455Z,2848.00
2019-03-16T09:51:25.584Z,2600.00
2019-03-16T09:52:25.707Z,2764.00
2019-03-16T09:53:25.846Z,2544.00
2019-03-16T09:54:26.000Z,2740.00
2019-03-16T09:55:26.104Z,2820.00
2019-03-16T09:56:26.246Z,2804.00
2019-03-16T09:57:26.413Z,2664.00
2019-03-16T09:58:31.298Z,2548.00
2019-03-16T09:59:26.647Z,2876.00
2019-03-16T10:00:26.795Z,2964.00
2019-03-16T10:01:26.915Z,2940.00
2019-03-16T10:02:27.044Z,2976.00
2019-03-16T10:03:27.191Z,2928.00
2019-03-16T10:04:27.319Z,2940.00
2019-03-16T10:05:27.445Z,3160.00
2019-03-16T10:06:27.592Z,3340.00
2019-03-16T10:07:27.724Z,3316.00
2019-03-16T10:08:27.848Z,3300.00
2019-03-16T10:09:27.976Z,3720.00
2019-03-16T10:10:28.110Z,3968.00
2019-03-16T10:11:28.255Z,4364.00
2019-03-16T10:13:28.525Z,4256.00
2019-03-16T10:14:28.657Z,3984.00
2019-03-16T10:15:28.820Z,3936.00
2019-03-16T10:16:28.953Z,4160.00
2019-03-16T10:17:29.081Z,4200.00
2019-03-16T10:18:29.203Z,4084.00
2019-03-16T10:19:29.355Z,3856.00
2019-03-16T10:20:29.467Z,3728.00
2019-03-16T10:21:29.608Z,3836.00
2019-03-16T10:22:29.729Z,3696.00
2019-03-16T10:23:29.831Z,4044.00
2019-03-16T10:24:29.980Z,4236.00
2019-03-16T10:25:30.090Z,4156.00
2019-03-16T10:26:30.229Z,4336.00
2019-03-16T10:27:30.348Z,5516.00
2019-03-16T10:28:42.945Z,5192.00
2019-03-16T10:29:30.606Z,5388.00
2019-03-16T10:30:30.723Z,5048.00
2019-03-16T10:31:30.871Z,4756.00
2019-03-16T10:32:31.011Z,4656.00
2019-03-16T10:33:31.134Z,4360.00
2019-03-16T10:34:31.269Z,5040.00
2019-03-16T10:35:31.391Z,5520.00
2019-03-16T10:36:31.530Z,6008.00
2019-03-16T10:37:31.646Z,6104.00
2019-03-16T10:38:31.791Z,5920.00
2019-03-16T10:39:31.915Z,4860.00
2019-03-16T10:40:32.053Z,4372.00
2019-03-16T10:41:32.181Z,6084.00
2019-03-16T10:42:32.323Z,6672.00
2019-03-16T10:43:32.444Z,7328.00
2019-03-16T10:44:32.571Z,5152.00
2019-03-16T10:45:32.698Z,3676.00
2019-03-16T10:46:32.846Z,3808.00
2019-03-16T10:47:32.978Z,6084.00
2019-03-16T10:48:33.097Z,5496.00
2019-03-16T10:49:33.242Z,5468.00
2019-03-16T10:50:33.386Z,9112.00
2019-03-16T10:51:33.520Z,6936.00
2019-03-16T10:52:33.662Z,9732.00
2019-03-16T10:53:33.787Z,6184.00
2019-03-16T10:54:33.917Z,7204.00
2019-03-16T10:55:34.051Z,4440.00
2019-03-16T10:56:34.190Z,3640.00
2019-03-16T10:57:34.313Z,6292.00
2019-03-16T10:58:34.464Z,5648.00
2019-03-16T10:59:34.590Z,5952.00
2019-03-16T11:00:34.741Z,5980.00
2019-03-16T11:03:06.992Z,7580.00
2019-03-16T11:04:07.136Z,23456.00
2019-03-16T11:05:07.261Z,28480.00
2019-03-16T11:06:07.401Z,15108.00
2019-03-16T11:07:07.533Z,9736.00
2019-03-16T11:08:07.667Z,4516.00
2019-03-16T11:09:07.789Z,5436.00
2019-03-16T11:10:07.926Z,6208.00
2019-03-16T11:11:08.080Z,6752.00
2019-03-16T11:12:08.212Z,7164.00
2019-03-16T11:13:08.356Z,6996.00
2019-03-16T11:14:08.492Z,6936.00
2019-03-16T11:15:08.649Z,7560.00
2019-03-16T11:16:08.778Z,9964.00
2019-03-16T11:17:08.901Z,10380.00
2019-03-16T11:18:09.286Z,10060.00
2019-03-16T11:19:09.180Z,9680.00
2019-03-16T11:20:09.293Z,10368.00
2019-03-16T11:21:09.426Z,13456.00
2019-03-16T11:22:09.571Z,15128.00
2019-03-16T11:23:09.693Z,14068.00
2019-03-16T11:24:09.813Z,10612.00
2019-03-16T11:25:09.939Z,11500.00
2019-03-16T11:26:10.092Z,9180.00
2019-03-16T11:27:10.220Z,7784.00
2019-03-16T11:28:10.351Z,7084.00
2019-03-16T11:29:10.493Z,6572.00
2019-03-16T11:30:10.618Z,9936.00
2019-03-16T11:31:10.736Z,8776.00
2019-03-16T11:32:10.961Z,7552.00
2019-03-16T11:33:11.005Z,9868.00
2019-03-16T11:34:11.137Z,9224.00
2019-03-16T11:35:11.287Z,10492.00
2019-03-16T11:36:11.402Z,9612.00
2019-03-16T11:37:11.531Z,9372.00
2019-03-16T11:38:11.676Z,7616.00
2019-03-16T11:39:11.853Z,9296.00
2019-03-16T11:40:11.963Z,10292.00
2019-03-16T11:41:12.083Z,8308.00
2019-03-16T11:42:12.237Z,5780.00
2019-03-16T11:43:12.371Z,4644.00
2019-03-16T11:44:12.488Z,6988.00
2019-03-16T11:45:12.619Z,3280.00
2019-03-16T11:46:12.752Z,2040.00
2019-03-16T11:47:12.879Z,1908.00
2019-03-16T11:48:13.011Z,2244.00
2019-03-16T11:49:13.136Z,3580.00
2019-03-16T11:50:13.308Z,6272.00
2019-03-16T11:51:13.426Z,5704.00
2019-03-16T11:52:13.559Z,6752.00
2019-03-16T11:53:13.694Z,4724.00
2019-03-16T11:54:13.826Z,4448.00
2019-03-16T11:55:13.959Z,4352.00
2019-03-16T11:56:18.268Z,4648.00
2019-03-16T11:57:14.252Z,4700.00
2019-03-16T11:58:14.369Z,4116.00
2019-03-16T11:59:21.660Z,3588.00
2019-03-16T12:00:14.624Z,3776.00
2019-03-16T12:01:14.745Z,3624.00
2019-03-16T12:02:14.872Z,2884.00
2019-03-16T12:03:15.003Z,2640.00
2019-03-16T12:04:15.125Z,3032.00
2019-03-16T12:05:15.264Z,3140.00
2019-03-16T12:06:15.400Z,3128.00
2019-03-16T12:07:15.514Z,2784.00
2019-03-16T12:08:15.654Z,2744.00
2019-03-16T12:09:15.779Z,2280.00
2019-03-16T12:10:15.929Z,2152.00
2019-03-16T12:11:16.043Z,1968.00
2019-03-16T12:12:16.169Z,1928.00
2019-03-16T12:13:17.921Z,2376.00
2019-03-16T12:14:16.428Z,2600.00
2019-03-16T12:15:16.575Z,2864.00
2019-03-16T12:16:16.707Z,3512.00
2019-03-16T12:17:16.857Z,3448.00
2019-03-16T12:18:16.975Z,3672.00
2019-03-16T12:19:17.115Z,4744.00
2019-03-16T12:20:18.365Z,6064.00
2019-03-16T12:21:17.382Z,5704.00
2019-03-16T12:22:17.509Z,8276.00
2019-03-16T12:23:17.639Z,6404.00
2019-03-16T12:24:17.775Z,5224.00
2019-03-16T12:25:17.909Z,4512.00
2019-03-16T12:26:20.156Z,5292.00
2019-03-16T12:27:18.166Z,6972.00
2019-03-16T12:28:18.304Z,6428.00
2019-03-16T12:29:18.453Z,4880.00
2019-03-16T12:30:18.908Z,4196.00
2019-03-16T12:31:18.700Z,4416.00
2019-03-16T12:32:18.835Z,4428.00
2019-03-16T12:33:18.962Z,3416.00
2019-03-16T12:34:19.113Z,3424.00
2019-03-16T12:35:19.242Z,3484.00
2019-03-16T12:36:19.373Z,5004.00
2019-03-16T12:37:19.496Z,8108.00
2019-03-16T12:38:19.770Z,8832.00
2019-03-16T12:39:19.806Z,7228.00
2019-03-16T12:40:19.849Z,8288.00
2019-03-16T12:41:19.969Z,5660.00
2019-03-16T12:42:20.102Z,5924.00